| time (UTC) | temp C | wind direction | speed KPH | gust KPH | rain 1hr cm | rain 24hr cm | rain mn cm | humidity % | barometer mb |
| 20260507141547 | 16 | 0 | 0.0 | 6.4 | 0.10 | 0.13 | 0.13 | 83 | 1010.7 |
| 20260507140032 | 15 | 180 | 6.4 | 16.1 | 0.08 | 0.08 | 0.08 | 84 | 1011.0 |
| 20260507134528 | 16 | 140 | 12.9 | 22.5 | 0.08 | 0.08 | 0.08 | 84 | 1011.1 |
| 20260507133028 | 16 | 150 | 8.0 | 16.1 | 0.03 | 0.03 | 0.03 | 83 | 1011.4 |
| 20260507131527 | 16 | 150 | 6.4 | 14.5 | 0.00 | 0.00 | 0.00 | 80 | 1011.4 |
| 20260507130040 | 18 | 150 | 8.0 | 17.7 | 0.00 | 0.00 | 0.00 | 73 | 1011.5 |
| 20260507124530 | 19 | 126 | 11.3 | 19.3 | 0.00 | 0.00 | 0.00 | 70 | 1011.4 |
| 20260507123030 | 19 | 94 | 11.3 | 24.1 | 0.00 | 0.00 | 0.00 | 69 | 1011.5 |
| 20260507121530 | 19 | 145 | 9.7 | 20.9 | 0.00 | 0.00 | 0.00 | 69 | 1011.6 |
| 20260507120030 | 19 | 101 | 9.7 | 22.5 | 0.00 | 0.00 | 0.00 | 69 | 1011.8 |
| 20260507114531 | 19 | 64 | 9.7 | 20.9 | 0.00 | 0.00 | 0.00 | 70 | 1011.8 |
| 20260507113030 | 18 | 138 | 12.9 | 22.5 | 0.00 | 0.00 | 0.00 | 71 | 1011.7 |
| 20260507111530 | 18 | 127 | 14.5 | 25.7 | 0.00 | 0.00 | 0.00 | 72 | 1011.9 |
| 20260507110030 | 18 | 105 | 11.3 | 25.7 | 0.00 | 0.00 | 0.00 | 72 | 1012.0 |
| 20260507104527 | 19 | 64 | 16.1 | 27.4 | 0.00 | 0.00 | 0.00 | 70 | 1012.1 |
| 20260507103032 | 18 | 93 | 19.3 | 27.4 | 0.00 | 0.00 | 0.00 | 72 | 1012.1 |
| 20260507101528 | 18 | 81 | 17.7 | 29.0 | 0.00 | 0.00 | 0.00 | 72 | 1012.1 |
| 20260507100036 | 18 | 117 | 16.1 | 30.6 | 0.00 | 0.00 | 0.00 | 72 | 1012.0 |
| 20260507094528 | 18 | 87 | 17.7 | 29.0 | 0.00 | 0.00 | 0.00 | 71 | 1012.1 |
| 20260507093028 | 18 | 100 | 16.1 | 29.0 | 0.00 | 0.00 | 0.00 | 71 | 1012.2 |
| 20260507091535 | 18 | 76 | 16.1 | 30.6 | 0.00 | 0.00 | 0.00 | 73 | 1012.1 |
| 20260507090028 | 18 | 58 | 16.1 | 22.5 | 0.00 | 0.00 | 0.00 | 73 | 1012.1 |
| 20260507084530 | 18 | 92 | 16.1 | 24.1 | 0.00 | 0.00 | 0.00 | 75 | 1012.1 |
| 20260507083028 | 17 | 61 | 12.9 | 22.5 | 0.00 | 0.00 | 0.00 | 76 | 1012.2 |
| 20260507081530 | 17 | 78 | 14.5 | 24.1 | 0.00 | 0.00 | 0.00 | 74 | 1012.2 |
| 20260507080028 | 17 | 78 | 9.7 | 20.9 | 0.00 | 0.00 | 0.00 | 74 | 1012.2 |
| 20260507074528 | 17 | 43 | 8.0 | 16.1 | 0.00 | 0.00 | 0.00 | 76 | 1012.2 |
| 20260507073031 | 17 | 98 | 6.4 | 14.5 | 0.00 | 0.00 | 0.00 | 76 | 1012.2 |
| 20260507071533 | 16 | 35 | 4.8 | 12.9 | 0.00 | 0.00 | 0.00 | 80 | 1012.0 |
| 20260507070033 | 15 | 35 | 1.6 | 9.7 | 0.00 | 0.00 | 0.00 | 84 | 1011.8 |
| 20260507064550 | 15 | 94 | 1.6 | 6.4 | 0.00 | 0.00 | 0.00 | 85 | 1011.7 |
| 20260507063034 | 15 | 86 | 3.2 | 4.8 | 0.00 | 0.00 | 0.00 | 85 | 1011.6 |
| 20260507061530 | 13 | 113 | 1.6 | 3.2 | 0.00 | 0.00 | 0.00 | 85 | 1011.7 |
| 20260507060030 | 13 | 113 | 1.6 | 4.8 | 0.00 | 0.00 | 0.00 | 85 | 1011.6 |
| 20260507054527 | 13 | 113 | 1.6 | 4.8 | 0.00 | 0.00 | 0.00 | 84 | 1011.6 |
| 20260507053030 | 13 | 0 | 0.0 | 4.8 | 0.00 | 0.00 | 0.00 | 84 | 1011.6 |
| 20260507051528 | 13 | 0 | 0.0 | 1.6 | 0.00 | 0.00 | 0.00 | 83 | 1011.6 |
| 20260507050039 | 13 | 113 | 1.6 | 4.8 | 0.00 | 0.00 | 0.00 | 83 | 1011.5 |
| 20260507044529 | 13 | 113 | 1.6 | 3.2 | 0.00 | 0.00 | 0.00 | 83 | 1011.4 |
| 20260507043030 | 13 | 113 | 1.6 | 4.8 | 0.00 | 0.00 | 0.00 | 83 | 1011.4 |
| 20260507041529 | 13 | 113 | 3.2 | 4.8 | 0.00 | 0.00 | 0.00 | 82 | 1011.3 |
| 20260507040030 | 13 | 114 | 1.6 | 4.8 | 0.00 | 0.00 | 0.00 | 82 | 1011.3 |
| 20260507034530 | 14 | 0 | 0.0 | 3.2 | 0.00 | 0.00 | 0.00 | 82 | 1011.3 |
| 20260507033028 | 15 | 63 | 1.6 | 4.8 | 0.00 | 0.00 | 0.00 | 82 | 1011.3 |
| 20260507031533 | 15 | 63 | 3.2 | 6.4 | 0.00 | 0.00 | 0.00 | 82 | 1011.3 |
| 20260507030035 | 15 | 66 | 3.2 | 8.0 | 0.00 | 0.00 | 0.00 | 82 | 1011.2 |
| 20260507024530 | 15 | 70 | 4.8 | 6.4 | 0.00 | 0.00 | 0.00 | 82 | 1011.4 |
| 20260507023030 | 15 | 65 | 4.8 | 9.7 | 0.00 | 0.00 | 0.00 | 82 | 1011.4 |
| 20260507021527 | 15 | 87 | 4.8 | 9.7 | 0.00 | 0.00 | 0.00 | 82 | 1011.4 |
| 20260507020029 | 15 | 87 | 4.8 | 9.7 | 0.00 | 0.00 | 0.00 | 82 | 1011.6 |
| 20260507014529 | 15 | 95 | 6.4 | 9.7 | 0.00 | 0.00 | 0.00 | 82 | 1011.7 |
| 20260507013028 | 15 | 110 | 4.8 | 9.7 | 0.00 | 0.00 | 0.00 | 82 | 1012.0 |
| 20260507011531 | 15 | 101 | 4.8 | 9.7 | 0.00 | 0.00 | 0.00 | 82 | 1011.8 |
| 20260507010043 | 15 | 103 | 4.8 | 9.7 | 0.00 | 0.00 | 0.00 | 83 | 1011.7 |
| 20260507004533 | 15 | 100 | 4.8 | 9.7 | 0.00 | 0.00 | 0.00 | 83 | 1011.8 |
| 20260507003029 | 15 | 82 | 4.8 | 11.3 | 0.00 | 0.00 | 0.00 | 83 | 1011.8 |
| 20260507001531 | 15 | 93 | 4.8 | 9.7 | 0.00 | 0.00 | 0.00 | 84 | 1011.9 |
| 20260507000028 | 15 | 71 | 4.8 | 8.0 | 0.00 | 0.00 | 0.00 | 84 | 1012.1 |
| 20260506234531 | 16 | 95 | 4.8 | 11.3 | 0.00 | 0.00 | 0.00 | 84 | 1012.2 |
| 20260506233030 | 16 | 73 | 4.8 | 9.7 | 0.00 | 0.00 | 0.00 | 84 | 1012.3 |
| 20260506231531 | 16 | 82 | 4.8 | 8.0 | 0.00 | 0.00 | 0.00 | 84 | 1012.4 |
| 20260506230039 | 16 | 74 | 4.8 | 11.3 | 0.00 | 0.00 | 0.00 | 84 | 1012.3 |
| 20260506224536 | 16 | 90 | 3.2 | 8.0 | 0.00 | 0.00 | 0.00 | 84 | 1012.3 |
| 20260506223030 | 16 | 70 | 4.8 | 8.0 | 0.00 | 0.00 | 0.00 | 84 | 1012.3 |
| 20260506221528 | 16 | 62 | 3.2 | 8.0 | 0.00 | 0.00 | 0.00 | 84 | 1012.4 |
| 20260506220035 | 16 | 60 | 1.6 | 4.8 | 0.00 | 0.00 | 0.00 | 83 | 1012.3 |
| 20260506214529 | 16 | 110 | 3.2 | 6.4 | 0.00 | 0.00 | 0.00 | 83 | 1012.5 |
| 20260506213030 | 16 | 110 | 3.2 | 12.9 | 0.00 | 0.00 | 0.00 | 83 | 1012.7 |
| 20260506211533 | 16 | 80 | 4.8 | 8.0 | 0.00 | 0.00 | 0.00 | 83 | 1012.7 |
| 20260506210031 | 16 | 65 | 3.2 | 8.0 | 0.00 | 0.00 | 0.00 | 82 | 1012.7 |
| 20260506204534 | 16 | 64 | 4.8 | 8.0 | 0.00 | 0.00 | 0.00 | 82 | 1012.6 |
| 20260506203031 | 16 | 83 | 4.8 | 11.3 | 0.00 | 0.00 | 0.00 | 81 | 1012.5 |
| 20260506201537 | 16 | 83 | 4.8 | 12.9 | 0.00 | 0.00 | 0.00 | 81 | 1012.3 |
| 20260506200030 | 17 | 91 | 6.4 | 11.3 | 0.00 | 0.00 | 0.00 | 80 | 1012.0 |
| 20260506194528 | 17 | 80 | 8.0 | 19.3 | 0.00 | 0.00 | 0.00 | 80 | 1011.8 |
| 20260506193027 | 17 | 90 | 12.9 | 19.3 | 0.00 | 0.00 | 0.00 | 79 | 1011.8 |
| 20260506191530 | 17 | 80 | 11.3 | 19.3 | 0.00 | 0.00 | 0.00 | 77 | 1011.6 |
| 20260506190030 | 17 | 97 | 12.9 | 22.5 | 0.00 | 0.00 | 0.00 | 77 | 1011.6 |
| 20260506184532 | 17 | 88 | 16.1 | 24.1 | 0.00 | 0.00 | 0.00 | 76 | 1011.3 |
| 20260506183032 | 18 | 84 | 12.9 | 24.1 | 0.00 | 0.00 | 0.00 | 74 | 1011.2 |
| 20260506181531 | 18 | 101 | 16.1 | 24.1 | 0.00 | 0.00 | 0.00 | 73 | 1011.1 |
| 20260506180032 | 18 | 85 | 8.0 | 24.1 | 0.00 | 0.00 | 0.00 | 73 | 1011.2 |
| 20260506174533 | 18 | 76 | 16.1 | 29.0 | 0.00 | 0.00 | 0.00 | 72 | 1011.1 |
| 20260506173030 | 18 | 98 | 16.1 | 29.0 | 0.00 | 0.00 | 0.00 | 72 | 1011.0 |
| 20260506171539 | 18 | 148 | 12.9 | 27.4 | 0.00 | 0.00 | 0.00 | 71 | 1010.9 |
| 20260506170029 | 18 | 121 | 9.7 | 19.3 | 0.00 | 0.00 | 0.00 | 71 | 1011.0 |
| 20260506164531 | 19 | 148 | 16.1 | 29.0 | 0.00 | 0.00 | 0.00 | 69 | 1010.9 |
| 20260506163030 | 19 | 105 | 11.3 | 24.1 | 0.00 | 0.00 | 0.00 | 68 | 1010.7 |
| 20260506161532 | 18 | 96 | 19.3 | 35.4 | 0.00 | 0.00 | 0.00 | 69 | 1010.6 |
| 20260506160030 | 19 | 131 | 16.1 | 33.8 | 0.00 | 0.00 | 0.00 | 67 | 1010.7 |
| 20260506154534 | 20 | 131 | 14.5 | 30.6 | 0.00 | 0.00 | 0.00 | 67 | 1010.4 |
| 20260506153030 | 20 | 124 | 14.5 | 37.0 | 0.00 | 0.00 | 0.00 | 68 | 1010.6 |
| 20260506151533 | 20 | 105 | 19.3 | 30.6 | 0.00 | 0.00 | 0.00 | 67 | 1010.8 |
| 20260506150028 | 20 | 99 | 25.7 | 35.4 | 0.00 | 0.00 | 0.00 | 67 | 1010.7 |
| 20260506144531 | 20 | 105 | 25.7 | 37.0 | 0.00 | 0.00 | 0.00 | 68 | 1010.7 |
| 20260506143032 | 20 | 119 | 27.4 | 43.5 | 0.00 | 0.00 | 0.00 | 68 | 1010.7 |